createdAt,value
2023-03-31T00:00:01.022Z,11
2023-03-31T00:01:01.126Z,11
2023-03-31T00:02:01.014Z,11
2023-03-31T00:03:01.086Z,11
2023-03-31T00:04:01.205Z,11
2023-03-31T00:05:01.519Z,11
2023-03-31T00:06:01.048Z,11
2023-03-31T00:07:01.087Z,10.9
2023-03-31T00:08:01.067Z,11
2023-03-31T00:09:00.695Z,11
2023-03-31T00:10:10.749Z,10.9
2023-03-31T00:11:02.481Z,10.9
2023-03-31T00:12:01.430Z,10.9
2023-03-31T00:13:01.116Z,10.9
2023-03-31T00:14:01.737Z,10.9
2023-03-31T00:15:01.787Z,10.9
2023-03-31T00:16:02.506Z,10.9
2023-03-31T00:17:01.141Z,11
2023-03-31T00:18:01.081Z,10.9
2023-03-31T00:19:01.025Z,11
2023-03-31T00:20:01.345Z,10.9
2023-03-31T00:21:02.437Z,11
2023-03-31T00:22:01.450Z,11
2023-03-31T00:23:01.029Z,11
2023-03-31T00:24:01.706Z,11
2023-03-31T00:25:01.035Z,10.9
2023-03-31T00:26:01.037Z,11
2023-03-31T00:27:01.021Z,11
2023-03-31T00:28:03.720Z,11
2023-03-31T00:29:01.339Z,11
2023-03-31T00:30:04.213Z,11
2023-03-31T00:31:04.154Z,10.9
2023-03-31T00:32:01.088Z,10.9
2023-03-31T00:33:01.089Z,10.9
2023-03-31T00:34:01.035Z,10.9
2023-03-31T00:35:01.032Z,11
2023-03-31T00:36:01.044Z,10.9
2023-03-31T00:37:01.408Z,10.9
2023-03-31T00:38:02.047Z,11
2023-03-31T00:39:02.101Z,10.9
2023-03-31T00:40:01.029Z,10.9
2023-03-31T00:41:03.758Z,11
2023-03-31T00:42:00.926Z,10.9
2023-03-31T00:43:01.021Z,10.9
2023-03-31T00:44:01.066Z,10.9
2023-03-31T00:45:01.097Z,10.9
2023-03-31T00:46:01.145Z,10.9
2023-03-31T00:47:01.026Z,10.9
2023-03-31T00:48:01.150Z,10.8
2023-03-31T00:49:01.023Z,10.8
2023-03-31T00:50:01.039Z,10.8
2023-03-31T00:51:01.036Z,10.8
2023-03-31T00:52:01.027Z,10.8
2023-03-31T00:53:01.027Z,10.8
2023-03-31T00:54:01.421Z,10.8
2023-03-31T00:55:01.372Z,10.8
2023-03-31T00:56:01.380Z,10.8
2023-03-31T00:57:01.944Z,10.8
2023-03-31T00:58:02.707Z,10.8
2023-03-31T00:59:01.025Z,10.8
2023-03-31T01:00:01.023Z,10.8
2023-03-31T01:01:01.738Z,10.8
2023-03-31T01:02:04.702Z,10.8
2023-03-31T01:03:01.075Z,10.8
2023-03-31T01:04:01.050Z,10.8
2023-03-31T01:05:01.107Z,10.8
2023-03-31T01:06:01.438Z,10.8
2023-03-31T01:07:07.591Z,10.8
2023-03-31T01:08:01.200Z,10.8
2023-03-31T01:09:02.596Z,10.8
2023-03-31T01:10:01.023Z,10.8
2023-03-31T01:11:01.032Z,10.8
2023-03-31T01:12:10.463Z,10.8
2023-03-31T01:13:01.411Z,10.8
2023-03-31T01:14:02.062Z,10.8
2023-03-31T01:15:01.134Z,10.8
2023-03-31T01:16:04.694Z,10.8
2023-03-31T01:17:13.608Z,10.8
2023-03-31T01:18:01.149Z,10.8
2023-03-31T01:19:02.304Z,10.8
2023-03-31T01:20:02.455Z,10.8
2023-03-31T01:21:02.477Z,10.8
2023-03-31T01:22:16.205Z,10.8
2023-03-31T01:23:01.146Z,10.8
2023-03-31T01:24:00.798Z,10.8
2023-03-31T01:25:00.360Z,10.8
2023-03-31T01:25:59.887Z,10.8
2023-03-31T01:26:59.424Z,10.8
2023-03-31T01:28:02.553Z,10.8
2023-03-31T01:29:01.209Z,10.9
2023-03-31T01:30:01.399Z,10.9
2023-03-31T01:31:02.394Z,10.9
2023-03-31T01:32:01.484Z,10.9
2023-03-31T01:33:02.055Z,10.9
2023-03-31T01:34:01.029Z,10.9
2023-03-31T01:35:01.061Z,10.9
2023-03-31T01:36:01.307Z,10.9
2023-03-31T01:37:01.841Z,10.9
2023-03-31T01:38:02.681Z,10.9
2023-03-31T01:39:01.720Z,10.9
2023-03-31T01:40:01.272Z,10.9
2023-03-31T01:41:01.859Z,10.9
2023-03-31T01:42:01.885Z,10.9
2023-03-31T01:43:01.448Z,10.9
2023-03-31T01:44:01.085Z,10.9
2023-03-31T01:45:01.408Z,10.9
2023-03-31T01:46:01.133Z,10.9
2023-03-31T01:47:01.026Z,10.9
2023-03-31T01:48:01.073Z,10.9
2023-03-31T01:49:01.026Z,10.9
2023-03-31T01:50:01.034Z,10.9
2023-03-31T01:51:01.051Z,10.9
2023-03-31T01:52:01.052Z,10.9
2023-03-31T01:53:01.453Z,10.8
2023-03-31T01:54:02.226Z,10.9
2023-03-31T01:55:01.051Z,10.9
2023-03-31T01:56:01.035Z,10.9
2023-03-31T01:57:01.092Z,10.8
2023-03-31T01:58:01.028Z,10.8
2023-03-31T01:59:01.191Z,10.8
2023-03-31T02:00:01.155Z,10.8
2023-03-31T02:01:01.881Z,10.8
2023-03-31T02:02:01.052Z,10.8
2023-03-31T02:03:01.129Z,10.8
2023-03-31T02:04:01.124Z,10.8
2023-03-31T02:05:01.035Z,10.8
2023-03-31T02:06:01.070Z,10.8
2023-03-31T02:07:01.259Z,10.8
2023-03-31T02:08:01.327Z,10.8
2023-03-31T02:09:01.938Z,10.8
2023-03-31T02:10:01.034Z,10.8
2023-03-31T02:11:01.050Z,10.8
2023-03-31T02:12:01.037Z,10.8
2023-03-31T02:13:01.038Z,10.8
2023-03-31T02:14:01.042Z,10.8
2023-03-31T02:15:01.041Z,10.8
2023-03-31T02:16:01.075Z,10.8
2023-03-31T02:17:01.188Z,10.8
2023-03-31T02:18:02.111Z,10.8
2023-03-31T02:19:02.745Z,10.8
2023-03-31T02:20:01.445Z,10.8
2023-03-31T02:21:01.088Z,10.8
2023-03-31T02:22:01.048Z,10.8
2023-03-31T02:23:00.624Z,10.9
2023-03-31T02:24:00.254Z,10.8
2023-03-31T02:24:59.930Z,10.8
2023-03-31T02:25:59.574Z,10.8
2023-03-31T02:27:02.068Z,10.8
2023-03-31T02:28:01.182Z,10.8
2023-03-31T02:29:01.048Z,10.8
2023-03-31T02:30:01.105Z,10.8
2023-03-31T02:31:01.052Z,10.8
2023-03-31T02:32:01.178Z,10.8
2023-03-31T02:33:01.144Z,10.8
2023-03-31T02:34:01.091Z,10.8
2023-03-31T02:35:01.679Z,10.8
2023-03-31T02:36:01.138Z,10.8
2023-03-31T02:37:01.023Z,10.8
2023-03-31T02:38:04.214Z,10.8
2023-03-31T02:39:01.339Z,10.8
2023-03-31T02:40:01.025Z,10.8
2023-03-31T02:41:01.040Z,10.8
2023-03-31T02:42:01.041Z,10.8
2023-03-31T02:43:06.236Z,10.8
2023-03-31T02:44:01.414Z,10.8
2023-03-31T02:45:01.044Z,10.8
2023-03-31T02:46:01.068Z,10.8
2023-03-31T02:47:01.248Z,10.8
2023-03-31T02:48:09.962Z,10.9
2023-03-31T02:49:01.174Z,10.8
2023-03-31T02:50:01.834Z,10.8
2023-03-31T02:51:01.153Z,10.8
2023-03-31T02:52:01.560Z,10.9
2023-03-31T02:53:12.006Z,10.8
2023-03-31T02:54:01.032Z,10.8
2023-03-31T02:55:01.018Z,10.8
2023-03-31T02:56:01.051Z,10.8
2023-03-31T02:57:01.453Z,10.8
2023-03-31T02:58:16.907Z,10.8
2023-03-31T02:59:01.025Z,10.8
2023-03-31T03:00:01.042Z,10.8
2023-03-31T03:01:01.032Z,10.9
2023-03-31T03:02:01.054Z,10.8
2023-03-31T03:03:01.077Z,10.8
2023-03-31T03:04:01.035Z,10.8
2023-03-31T03:05:01.047Z,10.8
2023-03-31T03:06:02.547Z,10.8
2023-03-31T03:07:01.280Z,10.8
2023-03-31T03:08:01.036Z,10.8
2023-03-31T03:09:01.061Z,10.8
2023-03-31T03:10:01.038Z,10.8
2023-03-31T03:11:01.059Z,10.8
2023-03-31T03:12:01.046Z,10.8
2023-03-31T03:13:01.097Z,10.8
2023-03-31T03:14:01.418Z,10.8
2023-03-31T03:15:01.036Z,10.8
2023-03-31T03:16:01.022Z,10.8
2023-03-31T03:17:01.062Z,10.8
2023-03-31T03:18:01.043Z,10.8
2023-03-31T03:19:00.625Z,10.8
2023-03-31T03:20:00.330Z,10.8
2023-03-31T03:20:59.941Z,10.8
2023-03-31T03:21:59.563Z,10.8
2023-03-31T03:23:01.360Z,10.8
2023-03-31T03:24:02.146Z,10.8
2023-03-31T03:25:01.974Z,10.8
2023-03-31T03:26:01.039Z,10.8
2023-03-31T03:27:01.043Z,10.8
2023-03-31T03:28:01.041Z,10.8
2023-03-31T03:29:01.733Z,10.8
2023-03-31T03:30:01.404Z,10.8
2023-03-31T03:31:02.058Z,10.8
2023-03-31T03:32:01.044Z,10.8
2023-03-31T03:33:01.092Z,10.8
2023-03-31T03:34:01.050Z,10.8
2023-03-31T03:35:01.400Z,10.8
2023-03-31T03:36:01.433Z,10.8
2023-03-31T03:37:01.406Z,10.8
2023-03-31T03:38:04.096Z,10.8
2023-03-31T03:39:02.009Z,10.8
2023-03-31T03:40:01.305Z,10.8
2023-03-31T03:41:01.023Z,10.8
2023-03-31T03:42:01.038Z,10.8
2023-03-31T03:43:01.027Z,10.8
2023-03-31T03:44:01.070Z,10.8
2023-03-31T03:45:01.168Z,10.8
2023-03-31T03:46:01.087Z,10.8
2023-03-31T03:47:01.078Z,10.8
2023-03-31T03:48:01.088Z,10.8
2023-03-31T03:49:00.688Z,10.8
2023-03-31T03:50:00.239Z,10.8
2023-03-31T03:50:59.898Z,10.8
2023-03-31T03:51:59.736Z,10.8
2023-03-31T03:53:02.117Z,10.8
2023-03-31T03:54:02.022Z,10.8
2023-03-31T03:55:01.046Z,10.8
2023-03-31T03:56:01.036Z,10.8
2023-03-31T03:57:01.127Z,10.8
2023-03-31T03:58:01.325Z,10.8
2023-03-31T03:59:01.754Z,10.8
2023-03-31T04:00:01.924Z,10.8
2023-03-31T04:01:02.224Z,10.8
2023-03-31T04:02:01.158Z,10.8
2023-03-31T04:03:01.454Z,10.7
2023-03-31T04:04:03.924Z,10.8
2023-03-31T04:05:01.727Z,10.8
2023-03-31T04:06:02.740Z,10.8
2023-03-31T04:07:01.057Z,10.8
2023-03-31T04:08:01.035Z,10.8
2023-03-31T04:09:00.663Z,10.8
2023-03-31T04:10:00.765Z,10.8
2023-03-31T04:11:00.353Z,10.8
2023-03-31T04:11:59.872Z,10.8
2023-03-31T04:12:59.413Z,10.8
2023-03-31T04:14:03.576Z,10.7
2023-03-31T04:15:01.043Z,10.8
2023-03-31T04:16:01.048Z,10.8
2023-03-31T04:17:01.027Z,10.7
2023-03-31T04:18:01.104Z,10.8
2023-03-31T04:19:05.225Z,10.7
2023-03-31T04:20:02.044Z,10.7
2023-03-31T04:21:04.140Z,10.7
2023-03-31T04:22:01.130Z,10.7
2023-03-31T04:23:01.040Z,10.7
2023-03-31T04:24:09.320Z,10.7
2023-03-31T04:25:01.681Z,10.7
2023-03-31T04:26:04.748Z,10.7
2023-03-31T04:27:01.093Z,10.7
2023-03-31T04:28:01.117Z,10.7
2023-03-31T04:29:10.938Z,10.7
2023-03-31T04:30:00.825Z,10.7
2023-03-31T04:31:01.043Z,10.7
2023-03-31T04:32:01.111Z,10.7
2023-03-31T04:33:01.221Z,10.7
2023-03-31T04:34:14.200Z,10.7
2023-03-31T04:35:01.035Z,10.7
2023-03-31T04:36:00.694Z,10.7
2023-03-31T04:37:00.324Z,10.7
2023-03-31T04:38:00.042Z,10.7
2023-03-31T04:38:59.738Z,10.7
2023-03-31T04:40:01.434Z,10.7
2023-03-31T04:41:01.010Z,10.7
2023-03-31T04:42:01.134Z,10.7
2023-03-31T04:43:01.026Z,10.6
2023-03-31T04:44:01.163Z,10.7
2023-03-31T04:45:01.026Z,10.6
2023-03-31T04:46:01.056Z,10.7
2023-03-31T04:47:01.243Z,10.7
2023-03-31T04:48:00.711Z,10.7
2023-03-31T04:49:00.403Z,10.7
2023-03-31T04:50:00.056Z,10.7
2023-03-31T04:50:59.736Z,10.7
2023-03-31T04:52:01.561Z,10.7
2023-03-31T04:53:01.217Z,10.7
2023-03-31T04:54:01.917Z,10.8
2023-03-31T04:55:01.857Z,10.7
2023-03-31T04:56:01.060Z,10.7
2023-03-31T04:57:03.815Z,10.7
2023-03-31T04:58:01.011Z,10.7
2023-03-31T04:59:01.152Z,10.7
2023-03-31T05:00:01.491Z,10.7
2023-03-31T05:01:02.726Z,10.7
2023-03-31T05:02:02.027Z,10.7
2023-03-31T05:03:02.002Z,10.7
2023-03-31T05:04:01.025Z,10.8
2023-03-31T05:05:01.144Z,10.7
2023-03-31T05:06:01.403Z,10.8
2023-03-31T05:07:01.036Z,10.7
2023-03-31T05:08:00.635Z,10.7
2023-03-31T05:09:00.238Z,10.7
2023-03-31T05:09:59.859Z,10.8
2023-03-31T05:11:03.080Z,10.8
2023-03-31T05:12:02.406Z,10.8
2023-03-31T05:13:01.041Z,10.7
2023-03-31T05:14:01.250Z,10.8
2023-03-31T05:15:01.098Z,10.8
2023-03-31T05:16:01.096Z,10.8
2023-03-31T05:17:01.158Z,10.8
2023-03-31T05:18:01.893Z,10.8
2023-03-31T05:19:01.935Z,10.8
2023-03-31T05:20:01.072Z,10.8
2023-03-31T05:21:01.187Z,10.8
2023-03-31T05:22:01.325Z,10.8
2023-03-31T05:23:01.400Z,10.8
2023-03-31T05:24:04.081Z,10.8
2023-03-31T05:25:02.626Z,10.8
2023-03-31T05:26:01.022Z,10.8
2023-03-31T05:27:01.037Z,10.8
2023-03-31T05:28:00.662Z,10.8
2023-03-31T05:29:00.326Z,10.8
2023-03-31T05:30:00.119Z,10.8
2023-03-31T05:30:59.861Z,10.8
2023-03-31T05:31:59.738Z,10.8
2023-03-31T05:33:02.346Z,10.8
2023-03-31T05:34:01.073Z,10.8
2023-03-31T05:35:00.788Z,10.8
2023-03-31T05:36:00.469Z,10.8
2023-03-31T05:37:00.158Z,10.8
2023-03-31T05:37:59.803Z,10.9
2023-03-31T05:39:01.774Z,10.9
2023-03-31T05:40:01.396Z,10.9
2023-03-31T05:41:02.475Z,10.9
2023-03-31T05:42:01.251Z,11
2023-03-31T05:43:01.253Z,11
2023-03-31T05:44:01.847Z,11
2023-03-31T05:45:02.191Z,11
2023-03-31T05:46:01.064Z,11
2023-03-31T05:47:01.050Z,11.1
2023-03-31T05:48:00.712Z,11.1
2023-03-31T05:49:00.320Z,11.1
2023-03-31T05:50:00.001Z,11.1
2023-03-31T05:50:59.556Z,11.1
2023-03-31T05:52:01.236Z,11.2
2023-03-31T05:53:08.006Z,11.2
2023-03-31T05:54:01.066Z,11.2
2023-03-31T05:55:00.623Z,11.2
2023-03-31T05:56:00.264Z,11.2
2023-03-31T05:56:59.938Z,11.2
2023-03-31T05:57:59.577Z,11.2
2023-03-31T05:59:02.025Z,11.2
2023-03-31T06:00:01.396Z,11.2
2023-03-31T06:01:01.098Z,11.2
2023-03-31T06:02:02.024Z,11.2
2023-03-31T06:03:00.703Z,11.2
2023-03-31T06:04:00.493Z,11.2
2023-03-31T06:05:04.439Z,11.2
2023-03-31T06:06:04.003Z,11.2
2023-03-31T06:07:01.280Z,11.1
2023-03-31T06:08:00.933Z,11.1
2023-03-31T06:09:01.408Z,11.1
2023-03-31T06:10:07.562Z,11.1
2023-03-31T06:11:01.056Z,11.1
2023-03-31T06:12:01.037Z,11.1
2023-03-31T06:13:02.069Z,11.1
2023-03-31T06:14:01.043Z,11.1
2023-03-31T06:15:01.238Z,11.2
2023-03-31T06:16:01.921Z,11.2
2023-03-31T06:17:02.451Z,11.2
2023-03-31T06:18:01.236Z,11.2
2023-03-31T06:19:03.966Z,11.3
2023-03-31T06:20:27.174Z,11.3
2023-03-31T06:21:01.028Z,11.3
2023-03-31T06:22:01.027Z,11.3
2023-03-31T06:23:01.244Z,11.3
2023-03-31T06:24:01.250Z,11.3
2023-03-31T06:25:17.568Z,11.4
2023-03-31T06:26:01.030Z,11.3
2023-03-31T06:27:01.036Z,11.4
2023-03-31T06:28:00.621Z,11.4
2023-03-31T06:29:00.248Z,11.4
2023-03-31T06:29:59.778Z,11.5
2023-03-31T06:31:01.759Z,11.5
2023-03-31T06:32:01.103Z,11.5
2023-03-31T06:33:03.976Z,11.5
2023-03-31T06:34:01.152Z,11.6
2023-03-31T06:35:01.050Z,11.6
2023-03-31T06:36:01.080Z,11.6
2023-03-31T06:37:01.034Z,11.7
2023-03-31T06:38:01.063Z,11.8
2023-03-31T06:39:01.416Z,11.8
2023-03-31T06:40:01.145Z,11.8
2023-03-31T06:41:01.031Z,11.8
2023-03-31T06:42:01.024Z,11.8
2023-03-31T06:43:01.046Z,11.8
2023-03-31T06:44:01.038Z,11.9
2023-03-31T06:45:01.072Z,11.9
2023-03-31T06:46:01.460Z,11.8
2023-03-31T06:47:01.025Z,11.8
2023-03-31T06:48:01.067Z,11.8
2023-03-31T06:49:00.688Z,11.8
2023-03-31T06:50:00.268Z,11.8
2023-03-31T06:50:59.801Z,11.8
2023-03-31T06:52:02.122Z,11.9
2023-03-31T06:53:02.483Z,11.9
2023-03-31T06:54:01.353Z,11.9
2023-03-31T06:55:02.000Z,12
2023-03-31T06:56:01.464Z,12
2023-03-31T06:57:01.446Z,12
2023-03-31T06:58:01.086Z,12
2023-03-31T06:59:01.230Z,12
2023-03-31T07:00:01.049Z,12.1
2023-03-31T07:01:01.042Z,12.1
2023-03-31T07:02:01.103Z,12.1
2023-03-31T07:03:01.298Z,12.1
2023-03-31T07:04:01.179Z,12.1
2023-03-31T07:05:01.200Z,12.1
2023-03-31T07:06:01.934Z,12.1
2023-03-31T07:07:01.041Z,12.1
2023-03-31T07:08:01.074Z,12.2
2023-03-31T07:09:00.692Z,12.2
2023-03-31T07:10:00.244Z,12.2
2023-03-31T07:10:59.787Z,12.2
2023-03-31T07:12:01.455Z,12.3
2023-03-31T07:13:04.493Z,12.3
2023-03-31T07:14:01.127Z,12.3
2023-03-31T07:15:01.021Z,12.3
2023-03-31T07:16:01.354Z,12.2
2023-03-31T07:17:01.044Z,12.2
2023-03-31T07:18:01.082Z,12.2
2023-03-31T07:19:01.022Z,12.2
2023-03-31T07:20:01.040Z,12.2
2023-03-31T07:21:01.045Z,12.3
2023-03-31T07:22:01.047Z,12.3
2023-03-31T07:23:01.108Z,12.3
2023-03-31T07:24:01.684Z,12.3
2023-03-31T07:25:02.111Z,12.3
2023-03-31T07:26:01.972Z,12.3
2023-03-31T07:27:01.029Z,12.4
2023-03-31T07:29:00.679Z,12.4
2023-03-31T07:30:00.237Z,12.5
2023-03-31T07:31:00.818Z,12.5
2023-03-31T07:32:01.207Z,12.5
2023-03-31T07:33:01.216Z,12.5
2023-03-31T07:34:01.441Z,12.5
2023-03-31T07:35:01.052Z,12.6
2023-03-31T07:36:11.798Z,12.6
2023-03-31T07:37:01.958Z,12.6
2023-03-31T07:38:01.070Z,12.6
2023-03-31T07:39:01.131Z,12.6
2023-03-31T07:40:01.061Z,12.6
2023-03-31T07:41:08.426Z,12.6
2023-03-31T07:42:02.220Z,12.6
2023-03-31T07:43:02.419Z,12.6
2023-03-31T07:44:01.999Z,12.6
2023-03-31T07:45:01.830Z,12.6
2023-03-31T07:46:01.069Z,12.6
2023-03-31T07:47:01.061Z,12.7
2023-03-31T07:48:01.217Z,12.6
2023-03-31T07:49:01.185Z,12.6
2023-03-31T07:50:01.512Z,12.7
2023-03-31T07:51:01.190Z,12.7
2023-03-31T07:52:01.063Z,12.7
2023-03-31T07:53:01.066Z,12.7
2023-03-31T07:54:01.061Z,12.6
2023-03-31T07:55:01.024Z,12.7
2023-03-31T07:56:01.067Z,12.7
2023-03-31T07:57:01.832Z,12.7
2023-03-31T07:58:01.793Z,12.7
2023-03-31T07:59:01.467Z,12.7
2023-03-31T08:00:01.250Z,12.7
2023-03-31T08:01:02.071Z,12.8
2023-03-31T08:02:01.157Z,12.8
2023-03-31T08:03:01.172Z,12.8
2023-03-31T08:04:01.229Z,12.8
2023-03-31T08:05:01.840Z,12.8
2023-03-31T08:06:01.957Z,12.9
2023-03-31T08:07:01.431Z,12.9
2023-03-31T08:08:01.959Z,12.9
2023-03-31T08:09:01.160Z,12.9
2023-03-31T08:10:01.157Z,13
2023-03-31T08:11:00.968Z,13
2023-03-31T08:12:01.085Z,13
2023-03-31T08:13:01.087Z,13
2023-03-31T08:14:01.459Z,13
2023-03-31T08:15:01.204Z,13
2023-03-31T08:16:01.136Z,13
2023-03-31T08:17:01.093Z,13
2023-03-31T08:18:01.231Z,13
2023-03-31T08:19:01.105Z,13
2023-03-31T08:20:05.391Z,13
2023-03-31T08:21:01.135Z,13.1
2023-03-31T08:22:01.038Z,13
2023-03-31T08:23:01.219Z,13
2023-03-31T08:24:01.135Z,13
2023-03-31T08:25:01.054Z,13
2023-03-31T08:26:01.047Z,13.1
2023-03-31T08:27:01.063Z,13
2023-03-31T08:28:01.094Z,13
2023-03-31T08:29:00.781Z,13.1
2023-03-31T08:30:00.471Z,13.1
2023-03-31T08:31:00.168Z,13.1
2023-03-31T08:31:59.929Z,13.1
2023-03-31T08:32:59.674Z,13.1
2023-03-31T08:34:01.490Z,13.1
2023-03-31T08:35:02.548Z,13.1
2023-03-31T08:36:02.591Z,13.1
2023-03-31T08:37:01.152Z,13.1
2023-03-31T08:38:01.039Z,13.1
2023-03-31T08:39:03.692Z,13.1
2023-03-31T08:40:00.760Z,13.1
2023-03-31T08:41:11.081Z,13.1
2023-03-31T08:42:01.771Z,13.1
2023-03-31T08:43:01.084Z,13.1
2023-03-31T08:44:05.462Z,13.1
2023-03-31T08:45:00.802Z,13
2023-03-31T08:46:01.300Z,13
2023-03-31T08:47:01.228Z,13
2023-03-31T08:48:05.289Z,13
2023-03-31T08:49:09.245Z,13
2023-03-31T08:50:01.946Z,13
2023-03-31T08:51:01.126Z,13
2023-03-31T08:52:01.197Z,13
2023-03-31T08:53:01.144Z,13
2023-03-31T08:54:14.518Z,13.1
2023-03-31T08:55:01.087Z,13.1
2023-03-31T08:56:01.047Z,13.1
2023-03-31T08:57:01.079Z,13.3
2023-03-31T08:58:01.099Z,13.3
2023-03-31T08:59:15.082Z,13.3
2023-03-31T09:00:01.086Z,13.3
2023-03-31T09:01:01.156Z,13.3
2023-03-31T09:02:01.184Z,13.3
2023-03-31T09:03:03.754Z,13.3
2023-03-31T09:04:17.248Z,13.3
2023-03-31T09:05:01.129Z,13.2
2023-03-31T09:06:01.209Z,13.2
2023-03-31T09:07:02.051Z,13.2
2023-03-31T09:08:01.345Z,13.1
2023-03-31T09:09:01.250Z,13.1
2023-03-31T09:10:01.586Z,13.1
2023-03-31T09:11:01.955Z,13.1
2023-03-31T09:12:02.065Z,13.1
2023-03-31T09:13:01.226Z,13.1
2023-03-31T09:14:01.525Z,13.1
2023-03-31T09:15:01.150Z,13.1
2023-03-31T09:16:01.046Z,13.2
2023-03-31T09:17:01.149Z,13.2
2023-03-31T09:18:01.114Z,13.2
2023-03-31T09:19:01.139Z,13.2
2023-03-31T09:20:01.525Z,13.3
2023-03-31T09:21:00.939Z,13.3
2023-03-31T09:22:01.123Z,13.3
2023-03-31T09:23:01.125Z,13.3
2023-03-31T09:24:01.436Z,13.3
2023-03-31T09:25:01.154Z,13.3
2023-03-31T09:26:01.053Z,13.3
2023-03-31T09:27:01.439Z,13.3
2023-03-31T09:28:01.282Z,13.3
2023-03-31T09:29:01.858Z,13.4
2023-03-31T09:30:03.794Z,13.3
2023-03-31T09:31:01.077Z,13.3
2023-03-31T09:32:01.118Z,13.3
2023-03-31T09:33:01.100Z,13.4
2023-03-31T09:34:01.072Z,13.3
2023-03-31T09:35:01.044Z,13.3
2023-03-31T09:36:01.150Z,13.3
2023-03-31T09:37:01.032Z,13.3
2023-03-31T09:38:01.524Z,13.3
2023-03-31T09:39:01.243Z,13.3
2023-03-31T09:40:01.950Z,13.3
2023-03-31T09:41:01.137Z,13.4
2023-03-31T09:42:01.127Z,13.4
2023-03-31T09:43:01.045Z,13.5
2023-03-31T09:44:01.048Z,13.5
2023-03-31T09:45:01.438Z,13.5
2023-03-31T09:46:09.775Z,13.5
2023-03-31T09:47:01.158Z,13.6
2023-03-31T09:48:01.143Z,13.6
2023-03-31T09:49:01.093Z,13.7
2023-03-31T09:50:01.216Z,13.7
2023-03-31T09:51:01.082Z,13.8
2023-03-31T09:52:01.115Z,13.8
2023-03-31T09:53:01.107Z,13.9
2023-03-31T09:54:01.123Z,14
2023-03-31T09:55:01.025Z,14
2023-03-31T09:56:01.128Z,14
2023-03-31T09:57:01.211Z,14
2023-03-31T09:58:01.134Z,14
2023-03-31T09:59:01.063Z,14.1
2023-03-31T10:00:01.165Z,14
2023-03-31T10:01:01.294Z,14
2023-03-31T10:02:01.991Z,14
2023-03-31T10:03:01.099Z,14.1
2023-03-31T10:04:01.155Z,14.1
2023-03-31T10:05:01.110Z,14
2023-03-31T10:06:01.103Z,14
2023-03-31T10:07:01.135Z,14
2023-03-31T10:08:01.289Z,14
2023-03-31T10:09:01.128Z,14.1
2023-03-31T10:10:01.593Z,14.1
2023-03-31T10:11:01.197Z,14.1
2023-03-31T10:12:01.147Z,14.1
2023-03-31T10:13:02.006Z,14.3
2023-03-31T10:14:01.162Z,14.3
2023-03-31T10:15:01.288Z,14.3
2023-03-31T10:16:01.718Z,14.4
2023-03-31T10:17:02.052Z,14.5
2023-03-31T10:18:01.079Z,14.5
2023-03-31T10:19:01.594Z,14.5
2023-03-31T10:20:03.584Z,14.5
2023-03-31T10:21:01.899Z,14.5
2023-03-31T10:22:01.117Z,14.5
2023-03-31T10:23:01.845Z,14.6
2023-03-31T10:24:01.119Z,14.6
2023-03-31T10:25:05.971Z,14.6
2023-03-31T10:26:02.076Z,14.6
2023-03-31T10:27:01.626Z,14.6
2023-03-31T10:28:01.136Z,14.6
2023-03-31T10:29:01.173Z,14.6
2023-03-31T10:30:08.452Z,14.6
2023-03-31T10:31:02.175Z,14.6
2023-03-31T10:32:02.568Z,14.6
2023-03-31T10:33:08.397Z,14.6
2023-03-31T10:34:01.640Z,14.5
2023-03-31T10:35:11.623Z,14.5
2023-03-31T10:36:02.082Z,14.4
2023-03-31T10:37:01.371Z,14.4
2023-03-31T10:38:01.389Z,14.3
2023-03-31T10:39:02.241Z,14.3
2023-03-31T10:40:13.886Z,14.1
2023-03-31T10:41:01.990Z,14.1
2023-03-31T10:42:01.384Z,14.1
2023-03-31T10:43:01.110Z,14
2023-03-31T10:44:01.127Z,14
2023-03-31T10:45:26.144Z,13.9
2023-03-31T10:46:02.943Z,13.8
2023-03-31T10:47:01.103Z,13.8
2023-03-31T10:48:00.667Z,13.7
2023-03-31T10:49:00.342Z,13.7
2023-03-31T10:50:00.070Z,13.8
2023-03-31T10:50:59.832Z,13.8
2023-03-31T10:52:02.481Z,13.8
2023-03-31T10:53:01.375Z,13.8
2023-03-31T10:54:02.655Z,13.9
2023-03-31T10:55:01.036Z,13.9
2023-03-31T10:56:01.148Z,13.9
2023-03-31T10:57:04.542Z,13.8
2023-03-31T10:58:01.105Z,13.8
2023-03-31T10:59:06.063Z,13.7
2023-03-31T11:00:01.235Z,13.7
2023-03-31T11:01:02.033Z,13.6
2023-03-31T11:02:02.314Z,13.6
2023-03-31T11:03:02.237Z,13.6
2023-03-31T11:04:02.691Z,13.5
2023-03-31T11:05:01.161Z,13.5
2023-03-31T11:06:01.052Z,13.5
2023-03-31T11:07:01.036Z,13.5
2023-03-31T11:08:01.263Z,13.5
2023-03-31T11:09:01.071Z,13.5
2023-03-31T11:10:01.064Z,13.5
2023-03-31T11:11:01.091Z,13.5
2023-03-31T11:12:01.097Z,13.6
2023-03-31T11:13:01.088Z,13.6
2023-03-31T11:14:01.181Z,13.5
2023-03-31T11:15:01.126Z,13.5
2023-03-31T11:16:02.001Z,13.5
2023-03-31T11:17:01.096Z,13.5
2023-03-31T11:18:01.075Z,13.5
2023-03-31T11:19:01.062Z,13.5
2023-03-31T11:20:01.048Z,13.4
2023-03-31T11:21:01.425Z,13.3
2023-03-31T11:22:02.122Z,13.3
2023-03-31T11:23:02.996Z,13.3
2023-03-31T11:24:01.104Z,13.3
2023-03-31T11:25:01.108Z,13.3
2023-03-31T11:26:01.097Z,13.3
2023-03-31T11:27:01.161Z,13.3
2023-03-31T11:28:01.494Z,13.3
2023-03-31T11:29:01.204Z,13.3
2023-03-31T11:30:01.559Z,13.3
2023-03-31T11:31:02.035Z,13.4
2023-03-31T11:32:01.091Z,13.5
2023-03-31T11:33:01.169Z,13.5
2023-03-31T11:34:01.972Z,13.5
2023-03-31T11:35:01.871Z,13.5
2023-03-31T11:36:01.437Z,13.6
2023-03-31T11:37:01.056Z,13.6
2023-03-31T11:38:01.017Z,13.6
2023-03-31T11:39:01.035Z,13.7
2023-03-31T11:40:01.115Z,13.7
2023-03-31T11:41:01.135Z,13.8
2023-03-31T11:42:00.879Z,13.8
2023-03-31T11:43:00.597Z,13.8
2023-03-31T11:44:00.254Z,13.8
2023-03-31T11:44:59.979Z,13.8
2023-03-31T11:45:59.687Z,13.8
2023-03-31T11:47:01.647Z,13.9
2023-03-31T11:48:01.706Z,13.9
2023-03-31T11:49:01.270Z,14
2023-03-31T11:50:00.818Z,14
2023-03-31T11:51:00.793Z,14
2023-03-31T11:52:00.417Z,13.9
2023-03-31T11:53:00.588Z,13.9
2023-03-31T11:54:00.133Z,13.9
2023-03-31T11:55:02.786Z,13.9
2023-03-31T11:56:01.091Z,13.8
2023-03-31T11:57:01.361Z,13.8
2023-03-31T11:58:01.675Z,13.7
2023-03-31T11:59:02.136Z,13.6
2023-03-31T12:00:01.677Z,13.6
2023-03-31T12:01:03.527Z,13.6
2023-03-31T12:02:01.112Z,13.6
2023-03-31T12:03:01.218Z,13.6
2023-03-31T12:04:01.211Z,13.6
2023-03-31T12:05:01.143Z,13.6
2023-03-31T12:06:07.032Z,13.6
2023-03-31T12:07:02.447Z,13.6
2023-03-31T12:08:01.072Z,13.6
2023-03-31T12:09:01.073Z,13.6
2023-03-31T12:10:00.738Z,13.7
2023-03-31T12:11:10.011Z,13.6
2023-03-31T12:12:01.807Z,13.6
2023-03-31T12:13:03.110Z,13.6
2023-03-31T12:14:01.088Z,13.5
2023-03-31T12:15:01.104Z,13.5
2023-03-31T12:16:13.982Z,13.5
2023-03-31T12:17:01.047Z,13.5
2023-03-31T12:18:01.166Z,13.5
2023-03-31T12:19:01.119Z,13.5
2023-03-31T12:20:01.128Z,13.5
2023-03-31T12:21:16.653Z,13.5
2023-03-31T12:22:01.123Z,13.5
2023-03-31T12:23:01.034Z,13.5
2023-03-31T12:24:01.059Z,13.6
2023-03-31T12:25:01.042Z,13.5
2023-03-31T12:26:01.016Z,13.5
2023-03-31T12:27:01.315Z,13.5
2023-03-31T12:28:00.779Z,13.5
2023-03-31T12:29:00.516Z,13.5
2023-03-31T12:30:00.165Z,13.5
2023-03-31T12:30:59.987Z,13.4
2023-03-31T12:31:59.642Z,13.4
2023-03-31T12:33:01.369Z,13.4
2023-03-31T12:34:01.129Z,13.4
2023-03-31T12:35:01.119Z,13.4
2023-03-31T12:36:01.158Z,13.3
2023-03-31T12:37:01.103Z,13.3
2023-03-31T12:38:01.047Z,13.3
2023-03-31T12:39:01.063Z,13.3
2023-03-31T12:40:01.086Z,13.2
2023-03-31T12:41:01.250Z,13.2
2023-03-31T12:42:01.208Z,13.3
2023-03-31T12:43:01.117Z,13.3
2023-03-31T12:44:01.239Z,13.3
2023-03-31T12:45:01.145Z,13.3
2023-03-31T12:46:01.149Z,13.3
2023-03-31T12:47:01.462Z,13.3
2023-03-31T12:48:01.394Z,13.3
2023-03-31T12:49:01.152Z,13.3
2023-03-31T12:50:01.554Z,13.3
2023-03-31T12:51:01.244Z,13.2
2023-03-31T12:52:01.131Z,13.2
2023-03-31T12:53:01.040Z,13.1
2023-03-31T12:54:01.034Z,13.1
2023-03-31T12:55:01.069Z,13.1
2023-03-31T12:56:01.045Z,13
2023-03-31T12:57:01.454Z,13
2023-03-31T12:58:01.083Z,13
2023-03-31T12:59:01.076Z,13
2023-03-31T13:00:01.087Z,12.9
2023-03-31T13:01:01.169Z,12.8
2023-03-31T13:02:01.126Z,12.8
2023-03-31T13:03:01.103Z,12.8
2023-03-31T13:04:01.018Z,12.8
2023-03-31T13:05:01.030Z,12.8
2023-03-31T13:06:01.112Z,12.8
2023-03-31T13:07:01.274Z,12.8
2023-03-31T13:08:01.506Z,12.8
2023-03-31T13:09:02.747Z,12.8
2023-03-31T13:10:01.834Z,12.8
2023-03-31T13:11:01.548Z,12.8
2023-03-31T13:12:01.739Z,12.7
2023-03-31T13:13:01.790Z,12.7
2023-03-31T13:14:01.365Z,12.7
2023-03-31T13:15:01.045Z,12.7
2023-03-31T13:16:01.074Z,12.7
2023-03-31T13:17:01.482Z,12.6
2023-03-31T13:18:01.145Z,12.6
2023-03-31T13:19:01.117Z,12.6
2023-03-31T13:20:01.153Z,12.6
2023-03-31T13:21:01.225Z,12.6
2023-03-31T13:22:01.129Z,12.6
2023-03-31T13:23:02.379Z,12.6
2023-03-31T13:24:01.286Z,12.7